CheckWX is a tool to help pilots better visualize weather data.  It is not intended as a substitute for an official pre-flight weather briefing.

17:43:35 UTC

VTUK METAR
Khon Kaen Airport
Khon Kaen, Thailand
Current

44 mins ago

VTUK 211700Z 08004KT 040V130 9000 FEW030 BKN080 24/19 Q1015 NOSIG
Observed
Nov-21 @ 17:00 UTC
Wind
  • 080° at 4 KTS
Visibility
9,000 meters
Flight Rules
VFR
Cloud Levels
  • Few at 3,000' AGL
  • Broken at 8,000' AGL
Temperature
24°C / 75°F
Dewpoint
19°C / 66°F
Humidity
74%
Altimeter
29.97" Hg
Pressure
1014.92 hPa
Previous

2 hours ago

VTUK 211600Z 09004KT 030V150 9000 FEW030 BKN080 25/19 Q1015 NOSIG
Observed
Nov-21 @ 16:00 UTC
Wind
  • 090° at 4 KTS
Visibility
9,000 meters
Flight Rules
VFR
Cloud Levels
  • Few at 3,000' AGL
  • Broken at 8,000' AGL
Temperature
25°C / 77°F
Dewpoint
19°C / 66°F
Humidity
69%
Altimeter
29.97" Hg
Pressure
1014.92 hPa
Previous

3 hours ago

VTUK 211500Z 09004KT 060V150 9000 FEW030 BKN080 25/19 Q1015 NOSIG
Observed
Nov-21 @ 15:00 UTC
Wind
  • 090° at 4 KTS
Visibility
9,000 meters
Flight Rules
VFR
Cloud Levels
  • Few at 3,000' AGL
  • Broken at 8,000' AGL
Temperature
25°C / 77°F
Dewpoint
19°C / 66°F
Humidity
69%
Altimeter
29.97" Hg
Pressure
1014.92 hPa